createdAt,value
2023-09-27T00:00:10.390Z,101081.53
2023-09-27T00:02:39.253Z,100941.66
2023-09-27T00:05:08.913Z,101059.38
2023-09-27T00:07:38.148Z,100950.66
2023-09-27T00:10:06.809Z,101037.88
2023-09-27T00:12:36.050Z,100975.78
2023-09-27T00:15:04.739Z,101084.28
2023-09-27T00:17:33.124Z,101086.16
2023-09-27T00:20:01.015Z,101068.94
2023-09-27T00:22:29.209Z,100974.25
2023-09-27T00:24:57.215Z,101075.97
2023-09-27T00:27:25.716Z,100961.72
2023-09-27T00:29:55.149Z,101040.84
2023-09-27T00:32:23.288Z,101018.09
2023-09-27T00:34:51.162Z,101029.81
2023-09-27T00:37:19.075Z,101018.88
2023-09-27T00:39:47.021Z,100980.19
2023-09-27T00:42:15.123Z,101013.25
2023-09-27T00:44:42.983Z,100980.16
2023-09-27T00:47:13.002Z,100931.00
2023-09-27T00:49:41.552Z,101025.66
2023-09-27T00:52:10.336Z,101014.06
2023-09-27T00:54:38.681Z,101014.75
2023-09-27T00:57:07.011Z,101032.56
2023-09-27T00:59:35.346Z,100871.38
2023-09-27T01:02:03.371Z,101122.13
2023-09-27T01:04:33.074Z,101016.41
2023-09-27T01:07:01.847Z,101122.47
2023-09-27T01:09:33.726Z,101128.00
2023-09-27T01:12:01.583Z,101046.72
2023-09-27T01:14:30.482Z,100911.25
2023-09-27T01:16:58.350Z,101122.41
2023-09-27T01:19:26.261Z,101075.34
2023-09-27T01:21:55.845Z,101141.47
2023-09-27T01:24:27.577Z,101118.66
2023-09-27T01:26:56.696Z,101131.75
2023-09-27T01:29:24.527Z,101084.78
2023-09-27T01:31:52.929Z,101152.41
2023-09-27T01:34:20.751Z,101148.09
2023-09-27T01:36:48.538Z,101107.09
2023-09-27T01:39:16.380Z,101155.78
2023-09-27T01:41:45.627Z,101109.38
2023-09-27T01:44:13.415Z,101128.94
2023-09-27T01:46:41.398Z,101004.66
2023-09-27T01:49:09.676Z,101051.56
2023-09-27T01:51:38.235Z,101139.31
2023-09-27T01:54:06.207Z,101146.59
2023-09-27T01:56:34.023Z,101087.41
2023-09-27T01:59:03.169Z,101144.09
2023-09-27T02:01:31.281Z,101147.78
2023-09-27T02:03:59.223Z,101169.31
2023-09-27T02:06:26.979Z,101155.69
2023-09-27T02:08:54.775Z,101156.44
2023-09-27T02:11:26.815Z,101152.56
2023-09-27T02:13:54.967Z,101074.38
2023-09-27T02:16:24.247Z,101114.22
2023-09-27T02:18:52.482Z,101149.50
2023-09-27T02:21:20.544Z,101144.00
2023-09-27T02:23:48.332Z,101152.75
2023-09-27T02:26:17.119Z,101148.53
2023-09-27T02:28:45.375Z,101117.66
2023-09-27T02:31:13.808Z,101096.34
2023-09-27T02:33:43.181Z,101159.78
2023-09-27T02:36:11.262Z,101032.19
2023-09-27T02:38:39.103Z,101146.16
2023-09-27T02:41:07.359Z,101152.75
2023-09-27T02:43:35.187Z,101131.78
2023-09-27T02:46:03.440Z,101091.91
2023-09-27T02:48:31.276Z,101106.44
2023-09-27T02:51:00.527Z,101060.31
2023-09-27T02:53:28.778Z,101126.34
2023-09-27T02:55:56.624Z,101114.00
2023-09-27T02:58:24.507Z,101077.75
2023-09-27T03:00:53.523Z,101110.22
2023-09-27T03:03:21.418Z,101100.16
2023-09-27T03:05:49.250Z,101090.78
2023-09-27T03:08:18.706Z,101103.06
2023-09-27T03:10:46.819Z,101101.03
2023-09-27T03:13:14.623Z,101100.16
2023-09-27T03:15:42.758Z,101076.28
2023-09-27T03:18:10.596Z,101012.41
2023-09-27T03:20:38.760Z,101032.00
2023-09-27T03:23:06.734Z,101092.69
2023-09-27T03:25:35.897Z,101095.41
2023-09-27T03:28:03.696Z,101042.41
2023-09-27T03:30:31.623Z,100962.16
2023-09-27T03:32:59.474Z,101057.19
2023-09-27T03:35:27.914Z,101100.56
2023-09-27T03:37:58.141Z,100980.34
2023-09-27T03:40:26.094Z,101109.56
2023-09-27T03:42:55.257Z,101053.66
2023-09-27T03:45:23.020Z,101108.16
2023-09-27T03:47:51.151Z,101027.91
2023-09-27T03:50:19.905Z,100992.00
2023-09-27T03:52:47.722Z,101105.78
2023-09-27T03:55:15.525Z,101096.88
2023-09-27T03:57:43.680Z,101060.78
2023-09-27T04:00:16.167Z,101085.09
2023-09-27T04:02:44.491Z,101034.09
2023-09-27T04:05:13.430Z,101025.97
2023-09-27T04:07:41.462Z,101088.34
2023-09-27T04:10:10.372Z,101091.16
2023-09-27T04:12:38.552Z,101083.41
2023-09-27T04:15:10.070Z,101059.47
2023-09-27T04:17:40.123Z,101009.31
2023-09-27T04:20:15.781Z,101025.09
2023-09-27T04:22:45.539Z,101060.66
2023-09-27T04:25:14.386Z,101040.34
2023-09-27T04:27:43.298Z,101046.28
2023-09-27T04:30:13.591Z,101050.94
2023-09-27T04:32:44.759Z,100978.03
2023-09-27T04:35:13.597Z,101049.53
2023-09-27T04:37:42.307Z,101107.84
2023-09-27T04:40:12.324Z,101102.34
2023-09-27T04:42:40.169Z,101085.44
2023-09-27T04:45:09.569Z,100983.97
2023-09-27T04:47:37.440Z,101125.06
2023-09-27T04:50:10.550Z,101006.47
2023-09-27T04:52:38.546Z,101124.94
2023-09-27T04:55:08.344Z,101130.34
2023-09-27T04:57:36.233Z,101089.34
2023-09-27T05:00:05.261Z,101095.84
2023-09-27T05:02:33.237Z,101079.06
2023-09-27T05:05:01.090Z,101031.56
2023-09-27T05:07:30.644Z,101080.91
2023-09-27T05:09:58.507Z,101144.63
2023-09-27T05:12:26.335Z,101125.50
2023-09-27T05:14:54.173Z,101117.16
2023-09-27T05:17:22.041Z,100997.38
2023-09-27T05:19:49.981Z,101009.50
2023-09-27T05:22:20.387Z,101062.69
2023-09-27T05:24:49.860Z,101112.50
2023-09-27T05:27:17.614Z,100979.72
2023-09-27T05:29:46.376Z,100950.72
2023-09-27T05:32:14.283Z,101128.09
2023-09-27T05:34:42.134Z,101095.91
2023-09-27T05:37:09.984Z,101008.06
2023-09-27T05:39:38.039Z,101069.94
2023-09-27T05:42:07.377Z,101029.38
2023-09-27T05:44:35.377Z,101117.47
2023-09-27T05:47:03.407Z,101078.38
2023-09-27T05:49:32.530Z,101112.59
2023-09-27T05:52:00.417Z,101074.59
2023-09-27T05:54:28.264Z,101064.53
2023-09-27T05:56:57.038Z,101090.03
2023-09-27T05:59:27.094Z,101116.34
2023-09-27T06:01:56.046Z,101146.19
2023-09-27T06:04:23.994Z,101027.63
2023-09-27T06:06:52.061Z,101151.44
2023-09-27T06:09:20.207Z,101098.59
2023-09-27T06:11:48.060Z,101108.09
2023-09-27T06:14:15.937Z,101012.09
2023-09-27T06:16:46.331Z,101183.06
2023-09-27T06:19:14.302Z,101081.19
2023-09-27T06:21:42.193Z,101156.97
2023-09-27T06:24:11.024Z,101085.75
2023-09-27T06:26:38.833Z,101119.19
2023-09-27T06:29:06.782Z,101190.94
2023-09-27T06:31:35.372Z,101179.56
2023-09-27T06:34:04.717Z,101003.09
2023-09-27T06:36:36.063Z,101154.38
2023-09-27T06:39:08.429Z,101126.19
2023-09-27T06:41:36.590Z,101111.16
2023-09-27T06:44:05.965Z,101159.66
2023-09-27T06:46:48.234Z,101171.94
2023-09-27T06:49:18.650Z,101166.41
2023-09-27T06:51:46.537Z,101162.59
2023-09-27T06:54:14.369Z,101161.13
2023-09-27T06:56:43.795Z,101155.56
2023-09-27T06:59:12.205Z,101086.66
2023-09-27T07:01:42.351Z,101160.13
2023-09-27T07:04:10.461Z,101177.25
2023-09-27T07:06:39.777Z,101098.91
2023-09-27T07:09:14.378Z,101161.22
2023-09-27T07:11:44.617Z,101157.50
2023-09-27T07:14:13.484Z,101126.91
2023-09-27T07:16:50.765Z,101000.44
2023-09-27T07:19:24.557Z,101093.06
2023-09-27T07:21:53.832Z,101142.53
2023-09-27T07:24:21.724Z,101141.50
2023-09-27T07:26:53.741Z,101048.16
2023-09-27T07:29:21.919Z,101179.06
2023-09-27T07:31:50.750Z,100959.84
2023-09-27T07:34:18.602Z,101051.13
2023-09-27T07:36:46.390Z,101064.34
2023-09-27T07:39:16.923Z,101140.78
2023-09-27T07:41:45.661Z,101079.03
2023-09-27T07:44:13.805Z,101157.50
2023-09-27T07:46:42.020Z,101104.66
2023-09-27T07:49:10.396Z,101161.38
2023-09-27T07:51:38.258Z,101167.53
2023-09-27T07:54:08.905Z,101163.59
2023-09-27T07:56:41.271Z,101152.09
2023-09-27T07:59:09.639Z,101153.81
2023-09-27T08:01:38.407Z,101150.47
2023-09-27T08:04:11.836Z,101164.47
2023-09-27T08:06:40.761Z,101146.78
2023-09-27T08:09:14.731Z,100977.09
2023-09-27T08:11:47.026Z,101127.03
2023-09-27T08:14:17.365Z,101144.00
2023-09-27T08:16:47.164Z,101024.38
2023-09-27T08:19:15.415Z,101039.00
2023-09-27T08:21:43.187Z,101133.97
2023-09-27T08:24:11.007Z,101127.19
2023-09-27T08:26:38.866Z,101121.50
2023-09-27T08:29:09.034Z,101100.59
2023-09-27T08:31:39.181Z,101140.41
2023-09-27T08:34:07.025Z,101114.78
2023-09-27T08:36:34.854Z,101147.66
2023-09-27T08:39:02.694Z,100934.59
2023-09-27T08:41:31.354Z,101138.28
2023-09-27T08:43:59.694Z,101066.09
2023-09-27T08:46:33.213Z,101110.59
2023-09-27T08:49:02.199Z,101114.16
2023-09-27T08:51:31.086Z,101083.00
2023-09-27T08:53:59.226Z,101127.06
2023-09-27T08:56:29.698Z,101123.81
2023-09-27T08:58:58.910Z,101117.09
2023-09-27T09:01:28.358Z,101038.28
2023-09-27T09:03:57.317Z,101104.50
2023-09-27T09:06:27.135Z,101112.50
2023-09-27T09:08:55.321Z,101095.09
2023-09-27T09:11:24.347Z,101114.63
2023-09-27T09:14:00.381Z,101114.63
2023-09-27T09:16:31.376Z,101104.06
2023-09-27T09:19:00.998Z,101098.75
2023-09-27T09:21:29.671Z,101020.81
2023-09-27T09:23:57.553Z,101068.41
2023-09-27T09:26:30.103Z,101113.03
2023-09-27T09:29:01.772Z,101116.94
2023-09-27T09:31:34.349Z,101110.84
2023-09-27T09:34:05.825Z,101104.50
2023-09-27T09:36:34.506Z,101087.25
2023-09-27T09:39:06.466Z,101099.94
2023-09-27T09:41:47.466Z,101095.81
2023-09-27T09:44:20.807Z,101018.81
2023-09-27T09:46:51.039Z,101082.38
2023-09-27T09:49:19.108Z,101088.72
2023-09-27T09:51:49.187Z,101067.78
2023-09-27T09:54:26.237Z,101069.66
2023-09-27T09:57:02.785Z,101000.50
2023-09-27T09:59:39.551Z,101040.81
2023-09-27T10:02:20.423Z,101035.44
2023-09-27T10:04:50.618Z,101091.25
2023-09-27T10:07:19.508Z,101077.97
2023-09-27T10:09:48.351Z,101078.16
2023-09-27T10:12:17.451Z,101073.53
2023-09-27T10:14:47.316Z,101086.25
2023-09-27T10:17:23.774Z,101082.25
2023-09-27T10:20:13.624Z,101075.28
2023-09-27T10:22:44.456Z,101071.59
2023-09-27T10:25:35.595Z,101077.41
2023-09-27T10:28:13.444Z,101055.59
2023-09-27T10:31:07.737Z,101077.84
2023-09-27T10:33:40.452Z,101089.06
2023-09-27T10:36:31.762Z,101079.03
2023-09-27T10:39:06.510Z,100983.09
2023-09-27T10:41:45.994Z,101068.03
2023-09-27T10:44:14.475Z,101040.56
2023-09-27T10:46:42.657Z,101071.41
2023-09-27T10:49:11.952Z,101068.53
2023-09-27T10:51:41.311Z,101035.28
2023-09-27T10:54:10.822Z,101080.84
2023-09-27T10:56:40.303Z,101022.84
2023-09-27T10:59:08.781Z,101070.16
2023-09-27T11:01:37.146Z,101050.28
2023-09-27T11:04:06.392Z,101054.94
2023-09-27T11:06:35.617Z,101048.44
2023-09-27T11:09:07.868Z,101056.88
2023-09-27T11:11:35.821Z,101048.94
2023-09-27T11:14:03.720Z,101035.66
2023-09-27T11:16:31.689Z,101041.31
2023-09-27T11:18:59.437Z,101032.31
2023-09-27T11:21:28.169Z,100962.44
2023-09-27T11:23:58.478Z,101023.66
2023-09-27T11:26:27.949Z,100992.41
2023-09-27T11:29:03.099Z,101012.81
2023-09-27T11:31:32.792Z,100945.41
2023-09-27T11:34:14.436Z,101007.56
2023-09-27T11:36:43.185Z,100836.63
2023-09-27T11:39:14.811Z,100995.63
2023-09-27T11:41:43.580Z,100963.94
2023-09-27T11:44:18.812Z,100995.16
2023-09-27T11:46:48.073Z,101001.31
2023-09-27T11:49:17.110Z,100993.06
2023-09-27T11:51:45.517Z,101002.31
2023-09-27T11:54:14.756Z,100991.59
2023-09-27T11:56:43.417Z,100988.06
2023-09-27T11:59:13.227Z,100983.72
2023-09-27T12:01:41.137Z,100979.66
2023-09-27T12:04:09.311Z,100976.66
2023-09-27T12:06:37.419Z,100956.69
2023-09-27T12:09:06.564Z,100974.13
2023-09-27T12:11:35.748Z,100964.78
2023-09-27T12:14:03.606Z,100959.72
2023-09-27T12:16:31.423Z,100953.31
2023-09-27T12:18:59.392Z,100950.72
2023-09-27T12:21:27.284Z,100921.59
2023-09-27T12:23:55.218Z,100942.00
2023-09-27T12:26:23.218Z,100929.69
2023-09-27T12:28:52.342Z,100944.28
2023-09-27T12:31:20.186Z,100940.78
2023-09-27T12:33:48.099Z,100919.91
2023-09-27T12:36:16.018Z,100928.38
2023-09-27T12:38:44.116Z,100926.47
2023-09-27T12:41:12.003Z,100845.78
2023-09-27T12:43:40.867Z,100922.16
2023-09-27T12:46:10.435Z,100918.31
2023-09-27T12:48:38.679Z,100921.38
2023-09-27T12:51:10.523Z,100914.03
2023-09-27T12:53:38.296Z,100912.47
2023-09-27T12:56:07.318Z,100831.56
2023-09-27T12:58:35.935Z,100868.28
2023-09-27T13:01:03.826Z,100900.75
2023-09-27T13:03:33.271Z,100890.66
2023-09-27T13:06:01.582Z,100896.75
2023-09-27T13:08:29.714Z,100892.59
2023-09-27T13:10:57.441Z,100844.34
2023-09-27T13:13:25.790Z,100884.72
2023-09-27T13:15:53.517Z,100877.44
2023-09-27T13:18:21.437Z,100871.31
2023-09-27T13:20:50.843Z,100872.63
2023-09-27T13:23:18.773Z,100870.06
2023-09-27T13:25:53.532Z,100867.31
2023-09-27T13:28:21.432Z,100862.25
2023-09-27T13:30:49.230Z,100857.03
2023-09-27T13:33:18.493Z,100860.09
2023-09-27T13:35:46.492Z,100858.88
2023-09-27T13:38:15.695Z,100857.69
2023-09-27T13:40:45.203Z,100863.56
2023-09-27T13:43:13.037Z,100835.25
2023-09-27T13:45:40.937Z,100819.69
2023-09-27T13:48:08.984Z,100817.63
2023-09-27T13:50:37.169Z,100724.84
2023-09-27T13:53:05.483Z,100767.28
2023-09-27T13:55:35.055Z,100848.38
2023-09-27T13:58:02.954Z,100850.84
2023-09-27T14:00:31.356Z,100847.19
2023-09-27T14:02:59.362Z,100817.00
2023-09-27T14:05:27.586Z,100845.81
2023-09-27T14:07:55.510Z,100844.34
2023-09-27T14:10:24.362Z,100782.38
2023-09-27T14:12:53.727Z,100793.66
2023-09-27T14:15:22.389Z,100841.38
2023-09-27T14:17:50.384Z,100794.66
2023-09-27T14:20:20.389Z,100805.88
2023-09-27T14:22:50.183Z,100827.00
2023-09-27T14:25:18.012Z,100744.38
2023-09-27T14:27:45.815Z,100775.59
2023-09-27T14:30:15.980Z,100810.88
2023-09-27T14:32:44.328Z,100754.53
2023-09-27T14:35:13.785Z,100813.44
2023-09-27T14:37:42.551Z,100790.53
2023-09-27T14:40:11.630Z,100784.97
2023-09-27T14:42:40.980Z,100742.81
2023-09-27T14:45:20.223Z,100717.94
2023-09-27T14:47:58.033Z,100815.91
2023-09-27T14:50:25.981Z,100711.72
2023-09-27T14:52:55.052Z,100801.97
2023-09-27T14:55:25.379Z,100796.06
2023-09-27T14:57:53.195Z,100740.38
2023-09-27T15:00:23.736Z,100790.25
2023-09-27T15:02:52.096Z,100792.66
2023-09-27T15:05:21.664Z,100806.56
2023-09-27T15:07:50.158Z,100769.94
2023-09-27T15:10:20.211Z,100799.34
2023-09-27T15:12:48.571Z,100798.19
2023-09-27T15:15:16.436Z,100801.81
2023-09-27T15:17:46.063Z,100791.16
2023-09-27T15:20:15.672Z,100805.56
2023-09-27T15:22:45.568Z,100710.44
2023-09-27T15:25:13.508Z,100721.28
2023-09-27T15:27:41.343Z,100614.06
2023-09-27T15:30:11.705Z,100768.34
2023-09-27T15:32:39.860Z,100796.97
2023-09-27T15:35:09.345Z,100799.34
2023-09-27T15:37:37.273Z,100721.31
2023-09-27T15:40:07.624Z,100787.84
2023-09-27T15:42:35.546Z,100794.88
2023-09-27T15:45:10.675Z,100786.91
2023-09-27T15:47:38.646Z,100576.16
2023-09-27T15:50:10.153Z,100735.56
2023-09-27T15:52:38.633Z,100709.06
2023-09-27T15:55:10.379Z,100729.88
2023-09-27T15:57:39.034Z,100642.59
2023-09-27T16:00:08.574Z,100791.50
2023-09-27T16:02:36.752Z,100714.31
2023-09-27T16:05:05.800Z,100692.88
2023-09-27T16:07:34.044Z,100723.91
2023-09-27T16:10:02.404Z,100704.09
2023-09-27T16:12:31.804Z,100661.06
2023-09-27T16:14:59.742Z,100761.91
2023-09-27T16:17:27.797Z,100727.06
2023-09-27T16:19:55.774Z,100762.56
2023-09-27T16:22:24.119Z,100713.81
2023-09-27T16:24:52.722Z,100713.84
2023-09-27T16:27:20.755Z,100749.56
2023-09-27T16:29:50.315Z,100673.66
2023-09-27T16:32:19.058Z,100632.91
2023-09-27T16:34:47.939Z,100611.53
2023-09-27T16:37:16.275Z,100646.28
2023-09-27T16:39:44.927Z,100724.31
2023-09-27T16:42:13.440Z,100580.91
2023-09-27T16:44:42.032Z,100751.56
2023-09-27T16:47:13.203Z,100549.31
2023-09-27T16:49:43.219Z,100742.09
2023-09-27T16:52:11.853Z,100589.28
2023-09-27T16:54:41.239Z,100535.72
2023-09-27T16:57:12.305Z,100707.47
2023-09-27T16:59:41.186Z,100546.59
2023-09-27T17:02:10.076Z,100505.50
2023-09-27T17:04:40.756Z,100526.41
2023-09-27T17:07:13.329Z,100763.06
2023-09-27T17:09:42.003Z,100685.69
2023-09-27T17:12:11.106Z,100545.53
2023-09-27T17:14:43.045Z,100541.38
2023-09-27T17:17:11.934Z,100570.41
2023-09-27T17:19:42.086Z,100549.50
2023-09-27T17:22:13.634Z,100704.88
2023-09-27T17:24:42.286Z,100491.75
2023-09-27T17:27:11.035Z,100736.28
2023-09-27T17:29:46.169Z,100603.81
2023-09-27T17:32:15.074Z,100670.19
2023-09-27T17:34:46.089Z,100512.66
2023-09-27T17:37:18.984Z,100518.09
2023-09-27T17:39:53.431Z,100500.97
2023-09-27T17:42:24.806Z,100520.28
2023-09-27T17:44:54.531Z,100607.19
2023-09-27T17:47:26.926Z,100552.53
2023-09-27T17:49:59.145Z,100697.53
2023-09-27T17:52:33.738Z,100508.72
2023-09-27T17:55:09.367Z,100506.47
2023-09-27T17:57:38.275Z,100455.16
2023-09-27T18:00:12.030Z,100523.41
2023-09-27T18:02:41.258Z,100462.94
2023-09-27T18:05:15.168Z,100509.81
2023-09-27T18:07:48.823Z,100491.53
2023-09-27T18:10:17.856Z,100523.84
2023-09-27T18:12:46.603Z,100613.19
2023-09-27T18:15:27.132Z,100542.88
2023-09-27T18:17:57.441Z,100433.72
2023-09-27T18:20:30.457Z,100453.34
2023-09-27T18:23:05.337Z,100702.06
2023-09-27T18:25:34.740Z,100668.94
2023-09-27T18:28:03.479Z,100595.78
2023-09-27T18:30:36.286Z,100475.00
2023-09-27T18:33:10.639Z,100457.41
2023-09-27T18:35:43.819Z,100511.59
2023-09-27T18:38:13.239Z,100552.78
2023-09-27T18:40:44.728Z,100691.16
2023-09-27T18:43:20.400Z,100458.00
2023-09-27T18:45:49.721Z,100476.00
2023-09-27T18:48:20.014Z,100594.03
2023-09-27T18:50:54.324Z,100533.22
2023-09-27T18:53:25.439Z,100469.72
2023-09-27T18:55:54.428Z,100450.13
2023-09-27T18:58:23.082Z,100513.91
2023-09-27T19:00:54.759Z,100441.81
2023-09-27T19:03:24.741Z,100540.34
2023-09-27T19:05:55.189Z,100493.72
2023-09-27T19:08:23.758Z,100619.59
2023-09-27T19:10:51.845Z,100636.47
2023-09-27T19:13:20.059Z,100415.63
2023-09-27T19:15:48.283Z,100639.13
2023-09-27T19:18:16.569Z,100392.84
2023-09-27T19:20:44.495Z,100515.06
2023-09-27T19:23:14.573Z,100665.69
2023-09-27T19:25:43.839Z,100498.06
2023-09-27T19:28:12.356Z,100490.28
2023-09-27T19:30:40.961Z,100637.31
2023-09-27T19:33:10.372Z,100496.75
2023-09-27T19:35:41.935Z,100391.84
2023-09-27T19:38:11.109Z,100612.44
2023-09-27T19:40:41.389Z,100594.22
2023-09-27T19:43:09.692Z,100481.03
2023-09-27T19:45:38.006Z,100607.34
2023-09-27T19:48:07.328Z,100599.63
2023-09-27T19:50:36.324Z,100583.44
2023-09-27T19:53:04.976Z,100648.06
2023-09-27T19:55:33.153Z,100478.16
2023-09-27T19:58:06.066Z,100570.69
2023-09-27T20:00:34.708Z,100510.72
2023-09-27T20:03:03.856Z,100395.59
2023-09-27T20:05:33.780Z,100561.34
2023-09-27T20:08:01.897Z,100503.78
2023-09-27T20:10:33.588Z,100395.06
2023-09-27T20:13:03.158Z,100461.31
2023-09-27T20:15:38.927Z,100583.22
2023-09-27T20:18:07.464Z,100392.63
2023-09-27T20:20:36.415Z,100552.31
2023-09-27T20:23:09.635Z,100399.97
2023-09-27T20:25:38.009Z,100612.78
2023-09-27T20:28:08.577Z,100381.66
2023-09-27T20:30:37.051Z,100518.72
2023-09-27T20:33:06.041Z,100397.66
2023-09-27T20:35:35.676Z,100393.06
2023-09-27T20:38:09.244Z,100497.28
2023-09-27T20:40:37.980Z,100431.03
2023-09-27T20:43:07.839Z,100387.47
2023-09-27T20:45:36.071Z,100641.22
2023-09-27T20:48:04.224Z,100588.56
2023-09-27T20:50:32.587Z,100398.66
2023-09-27T20:53:00.763Z,100453.69
2023-09-27T20:55:29.328Z,100416.38
2023-09-27T20:57:57.512Z,100589.47
2023-09-27T21:00:27.513Z,100635.34
2023-09-27T21:02:55.963Z,100622.31
2023-09-27T21:05:24.290Z,100453.69
2023-09-27T21:07:52.724Z,100410.81
2023-09-27T21:10:21.127Z,100616.22
2023-09-27T21:12:49.170Z,100401.50
2023-09-27T21:15:17.637Z,100632.19
2023-09-27T21:17:46.899Z,100573.50
2023-09-27T21:20:15.490Z,100468.88
2023-09-27T21:22:43.428Z,100519.72
2023-09-27T21:25:11.999Z,100516.66
2023-09-27T21:27:40.372Z,100405.38
2023-09-27T21:30:09.838Z,100418.19
2023-09-27T21:32:37.876Z,100612.19
2023-09-27T21:35:08.819Z,100400.78
2023-09-27T21:37:37.391Z,100591.59
2023-09-27T21:40:06.929Z,100617.88
2023-09-27T21:42:35.179Z,100398.63
2023-09-27T21:45:03.336Z,100314.75
2023-09-27T21:47:32.055Z,100472.69
2023-09-27T21:50:00.591Z,100589.13
2023-09-27T21:52:36.569Z,100488.88
2023-09-27T21:55:05.878Z,100476.53
2023-09-27T21:57:33.825Z,100594.03
2023-09-27T22:00:02.232Z,100314.09
2023-09-27T22:02:30.827Z,100441.97
2023-09-27T22:04:59.946Z,100434.25
2023-09-27T22:07:29.562Z,100482.25
2023-09-27T22:09:57.508Z,100376.75
2023-09-27T22:12:28.898Z,100318.91
2023-09-27T22:14:57.825Z,100492.47
2023-09-27T22:17:25.941Z,100393.28
2023-09-27T22:19:55.458Z,100569.59
2023-09-27T22:22:28.491Z,100402.69
2023-09-27T22:24:58.739Z,100390.50
2023-09-27T22:27:28.161Z,100360.56
2023-09-27T22:29:57.517Z,100317.81
2023-09-27T22:32:26.275Z,100436.47
2023-09-27T22:34:56.671Z,100552.25
2023-09-27T22:37:25.443Z,100537.31
2023-09-27T22:40:04.575Z,100556.34
2023-09-27T22:42:42.748Z,100532.28
2023-09-27T22:45:29.138Z,100513.84
2023-09-27T22:47:58.788Z,100473.53
2023-09-27T22:50:30.038Z,100514.00
2023-09-27T22:52:58.390Z,100302.09
2023-09-27T22:55:28.786Z,100249.97
2023-09-27T22:57:59.482Z,100439.81
2023-09-27T23:00:32.318Z,100282.13
2023-09-27T23:03:00.472Z,100301.91
2023-09-27T23:05:33.967Z,100433.41
2023-09-27T23:08:03.786Z,100321.94
2023-09-27T23:10:37.248Z,100509.69
2023-09-27T23:13:25.102Z,100513.66
2023-09-27T23:15:55.013Z,100463.19
2023-09-27T23:18:28.862Z,100455.66
2023-09-27T23:20:57.788Z,100512.09
2023-09-27T23:23:37.494Z,100420.25
2023-09-27T23:26:04.877Z,100475.88
2023-09-27T23:28:45.800Z,100542.91
2023-09-27T23:31:13.426Z,100297.56
2023-09-27T23:33:45.557Z,100290.78
2023-09-27T23:36:25.041Z,100416.63
2023-09-27T23:39:04.760Z,100296.19
2023-09-27T23:41:32.344Z,100299.91
2023-09-27T23:44:06.259Z,100292.97
2023-09-27T23:46:39.752Z,100332.38
2023-09-27T23:49:08.763Z,100272.66
2023-09-27T23:51:37.282Z,100449.53
2023-09-27T23:54:08.928Z,100405.06
2023-09-27T23:56:38.287Z,100349.28
2023-09-27T23:59:21.030Z,100330.09
